Lehigh Valley, Pennsylvania
Current Conditions -  °F | °C
As of 4:51 PM on Monday 20 Oct 2014 (Local Time) from KABE Reporting Station
Clear Clear  
Wind Chill: 59°   Ceiling: Unl
Heat Index: 59°   Visibility: 10mi
Dew Point: 38°   Wind: 13mph
Humidity: 46%   Direction: 180°S
Pressure: 29.96"   Gusts: NA
Location:  40.65°N, 75.44°W
Report Text: KABE 202051Z 18011KT 10SM CLR 15/03 A2996 RMK AO2 SLP146 T01500033 56019
Loading
Personal Weather Stations






























Interactive Weather Map
Tropical Storm Tracking
New forecast layout! Learn more

10-Day Weather Forecast

Advertisements
Track Severe Weather on mobile